Ruth — 5BEG2 — position and weather

sailwx.info

Track history (hours):
 
Tides and Currents Weather Stations Pressure Air Temp Water Temp Dewpoint Dewpoint Depression Visibility Wind Speed Wind Dir Waves Ship Positions

Ruth

Last reported at 2017-Sep-19 22:31 UTC. Time now 2017-Sep-19 22:40 UTC.
Position N 38°07' W 009°39'.

Length 134 m; draft 7.1 m.

Type: Ship (hazmat cat A). MMSI: 212613000.

Date/timePositionNaut miles runAvg speedWind from/ knotsBaromVisibWave heightAir tempDewpointWater temp
2017-Sep-19 22:31N 38°07' W 009°39'815.2
2017-Sep-19 22:01N 37°60' W 009°38'815.4
2017-Sep-19 21:31N 37°52' W 009°36'815.1
2017-Sep-19 21:00N 37°45' W 009°33'815.3
2017-Sep-19 20:31N 37°37' W 009°31'815.5
2017-Sep-19 20:00N 37°30' W 009°28'815.7
2017-Sep-19 19:31N 37°22' W 009°26'816.1
2017-Sep-19 18:59N 37°14' W 009°24'816.1
2017-Sep-19 18:30N 37°06' W 009°22'816.1
2017-Sep-19 18:01N 36°58' W 009°20'815.5
2017-Sep-19 17:28N 36°51' W 009°15'18316.2
2017-Sep-19 06:08N 35°58' W 005°38'214.0
2017-Sep-19 06:00N 35°58' W 005°35'713.9
2017-Sep-19 05:30N 35°59' W 005°27'713.9
2017-Sep-19 05:00N 36°01' W 005°18'224 8.9
2017-Sep-18 03:44N 37°31' W 001°02'314.3
2017-Sep-18 03:30N 37°28' W 001°04'1014.5
2017-Sep-18 02:50N 37°20' W 001°12'1314.6
2017-Sep-18 01:58N 37°11' W 001°22'19812.9
2017-Sep-17 10:38N 35°60' W 005°12'213.1
2017-Sep-17 10:30N 35°59' W 005°14'713.4
2017-Sep-17 10:00N 35°58' W 005°22'10 0.3
2017-Sep-15 22:20N 35°57' W 005°35'514.4
2017-Sep-15 22:01N 35°59' W 005°29'713.6
2017-Sep-15 21:30N 36°04' W 005°24'4 0.5
2017-Sep-15 14:12N 36°08' W 005°25'0 0.0
2017-Sep-15 14:00N 36°08' W 005°25'0 0.0
2017-Sep-15 13:23N 36°08' W 005°25'3 4.7
2017-Sep-15 12:44N 36°05' W 005°23'2 1.8
2017-Sep-15 11:36N 36°03' W 005°22'0 5.2
2017-Sep-15 11:30N 36°03' W 005°23'816.3
2017-Sep-15 11:00N 35°57' W 005°30'6117.7
2017-Sep-15 07:33N 36°01' W 006°45'117.0
2017-Sep-15 07:30N 36°01' W 006°46'3716.7
2017-Sep-15 05:18N 36°12' W 007°30'516.7
2017-Sep-15 05:00N 36°13' W 007°36'816.6
2017-Sep-15 04:31N 36°15' W 007°45'816.6
2017-Sep-15 04:00N 36°18' W 007°55'916.5
2017-Sep-15 03:27N 36°19' W 008°06'4716.6
2017-Sep-15 00:37N 36°31' W 009°03'622.6
2017-Sep-15 00:20N 36°26' W 009°07'1128.9
2017-Sep-14 23:57N 36°35' W 009°16'717.0
2017-Sep-14 23:30N 36°40' W 009°23'916.7
2017-Sep-14 22:59N 36°46' W 009°30'816.8
2017-Sep-14 22:30N 36°54' W 009°35'917.3
2017-Sep-14 22:01N 37°02' W 009°38'917.1
2017-Sep-14 21:31N 37°10' W 009°40'917.1
2017-Sep-14 21:01N 37°19' W 009°42'917.2
2017-Sep-14 20:31N 37°27' W 009°44'917.1
2017-Sep-14 20:01N 37°36' W 009°46'816.5
2017-Sep-14 19:31N 37°44' W 009°48'816.4
2017-Sep-14 19:01N 37°52' W 009°50'816.5
2017-Sep-14 18:31N 37°60' W 009°53'816.8
2017-Sep-14 18:01N 38°08' W 009°55'816.8
2017-Sep-14 17:31N 38°16' W 009°58'917.2
2017-Sep-14 17:01N 38°24' W 010°00'917.3
2017-Sep-14 16:31N 38°33' W 010°03'917.7
2017-Sep-14 16:00N 38°42' W 010°05'917.2
2017-Sep-14 15:31N 38°50' W 010°05'917.2
2017-Sep-14 15:01N 38°59' W 010°06'917.1
2017-Sep-14 14:30N 39°07' W 010°06'917.1
2017-Sep-14 14:01N 39°16' W 010°05'816.8
2017-Sep-14 13:30N 39°24' W 010°06'66614.3
2017-Sep-12 14:49N 49°36' W 003°56'516.0
2017-Sep-12 14:31N 49°39' W 003°50'815.9
2017-Sep-12 14:01N 49°43' W 003°41'815.6
2017-Sep-12 13:31N 49°48' W 003°30'815.1
2017-Sep-12 13:01N 49°51' W 003°20'714.8
2017-Sep-12 12:30N 49°55' W 003°10'714.4
2017-Sep-12 12:01N 49°58' W 003°00'713.9
2017-Sep-12 11:31N 50°01' W 002°50'713.8
2017-Sep-12 10:59N 50°02' W 002°39'3414.1
2017-Sep-12 08:35N 50°10' W 001°48'115.8
2017-Sep-12 08:30N 50°10' W 001°46'816.1
2017-Sep-12 08:00N 50°12' W 001°34'816.9
2017-Sep-12 07:30N 50°15' W 001°21'3517.9
2017-Sep-12 05:32N 50°24' W 000°28'017.5
2017-Sep-12 05:31N 50°24' W 000°27'917.0
2017-Sep-12 05:00N 50°26' W 000°14'816.3
2017-Sep-12 04:31N 50°28' W 000°02'816.0
2017-Sep-12 04:00N 50°30' E 000°10'815.5
2017-Sep-12 03:31N 50°32' E 000°22'714.9
2017-Sep-12 03:01N 50°34' E 000°33'714.3
2017-Sep-12 02:30N 50°38' E 000°43'714.5
2017-Sep-12 02:01N 50°42' E 000°53'714.4
2017-Sep-12 01:30N 50°46' E 001°02'1814.6
2017-Sep-12 00:17N 50°58' E 001°23'517.1
2017-Sep-12 00:01N 51°01' E 001°28'918.2
2017-Sep-11 23:31N 51°08' E 001°38'918.2
2017-Sep-11 23:00N 51°15' E 001°48'917.7
2017-Sep-11 22:30N 51°22' E 001°56'816.9
2017-Sep-11 22:00N 51°29' E 002°04'816.0
2017-Sep-11 21:30N 51°35' E 002°13'62122.4
2017-Sep-11 21:00N 52°03' E 003°43'0 0.0
2017-Sep-11 20:30N 52°03' E 003°43'0 0.0
2017-Sep-11 20:00N 52°03' E 003°43'0 0.0
2017-Sep-11 19:30N 52°03' E 003°43'0 0.0
2017-Sep-11 19:00N 52°03' E 003°43'0 0.0
2017-Sep-11 18:30N 52°03' E 003°43'0 0.0
2017-Sep-11 18:00N 52°03' E 003°43'0 0.0
2017-Sep-11 17:30N 52°03' E 003°43'0 0.0
2017-Sep-11 17:00N 52°03' E 003°43'4 7.3
2017-Sep-11 16:30N 52°03' E 003°49'5 9.7
2017-Sep-11 16:00N 52°02' E 003°56'713.5
2017-Sep-11 15:30N 51°59' E 004°06'612.5
2017-Sep-11 15:01N 51°55' E 004°14'510.7
2017-Sep-11 14:30N 51°54' E 004°23'2 4.2
2017-Sep-11 14:00N 51°54' E 004°26'0 0.0
2017-Sep-11 13:30N 51°54' E 004°26'0 0.0
2017-Sep-11 13:00N 51°54' E 004°26'0 0.0
2017-Sep-11 12:30N 51°54' E 004°26'0 0.0
2017-Sep-11 12:00N 51°54' E 004°26'0 0.0
2017-Sep-11 11:30N 51°54' E 004°26'0 0.0
2017-Sep-11 11:00N 51°54' E 004°26'0 0.0
2017-Sep-11 10:30N 51°54' E 004°26'0 0.0
2017-Sep-11 10:01N 51°54' E 004°26'0 0.0
2017-Sep-11 09:30N 51°54' E 004°26'0 0.1
2017-Sep-11 09:00N 51°54' E 004°26'1 2.4
2017-Sep-11 08:30N 51°54' E 004°24'1 2.2
2017-Sep-11 08:00N 51°53' E 004°25'0 0.0
2017-Sep-11 07:30N 51°53' E 004°25'0 0.0
2017-Sep-11 06:59N 51°53' E 004°25'0 0.0
2017-Sep-11 06:29N 51°53' E 004°25'0 0.0
2017-Sep-11 05:58N 51°53' E 004°25'0 0.0
2017-Sep-11 05:28N 51°53' E 004°25'0 0.0
2017-Sep-11 04:58N 51°53' E 004°25'0 0.8
2017-Sep-11 04:30N 51°53' E 004°25'0 0.0
2017-Sep-11 03:59N 51°53' E 004°25'0 0.0
2017-Sep-11 03:29N 51°53' E 004°25'0 0.0
2017-Sep-11 02:59N 51°53' E 004°25'0 0.0
2017-Sep-11 02:29N 51°53' E 004°25'0 0.0
2017-Sep-11 01:59N 51°53' E 004°25'0 0.0
2017-Sep-11 01:28N 51°53' E 004°25'0 0.0
2017-Sep-11 00:58N 51°53' E 004°25'0 0.0
2017-Sep-11 00:28N 51°53' E 004°25'0 0.0
2017-Sep-10 23:58N 51°53' E 004°25'0 0.0
2017-Sep-10 23:30N 51°53' E 004°25'0 0.0
2017-Sep-10 23:00N 51°53' E 004°25'0 0.0
2017-Sep-10 22:27N 51°53' E 004°25'0 0.0
2017-Sep-10 22:00N 51°53' E 004°25'0 0.0
2017-Sep-10 21:30N 51°53' E 004°25'0 0.0
2017-Sep-10 20:59N 51°53' E 004°25'0 0.0
2017-Sep-10 20:29N 51°53' E 004°25'0 0.0
2017-Sep-10 19:56N 51°53' E 004°25'0 0.0
2017-Sep-10 19:26N 51°53' E 004°25'0 0.0
2017-Sep-10 18:59N 51°53' E 004°25'0 0.0
2017-Sep-10 18:28N 51°53' E 004°25'0 0.0
2017-Sep-10 17:58N 51°53' E 004°25'0 0.0
2017-Sep-10 17:28N 51°53' E 004°25'0 0.0
2017-Sep-10 16:55N 51°53' E 004°25'0 0.0
2017-Sep-10 16:30N 51°53' E 004°25'0 0.0
2017-Sep-10 16:00N 51°53' E 004°25'0 0.0
2017-Sep-10 15:30N 51°53' E 004°25'0 0.0
2017-Sep-10 15:00N 51°53' E 004°25'0 0.0
2017-Sep-10 13:59N 51°53' E 004°25'0 0.0
2017-Sep-10 13:26N 51°53' E 004°25'0 0.0
2017-Sep-10 12:59N 51°53' E 004°25'0 0.0
2017-Sep-10 12:29N 51°53' E 004°25'0 0.0
2017-Sep-10 11:55N 51°53' E 004°25'0 0.0
2017-Sep-10 11:28N 51°53' E 004°25'0 0.0
2017-Sep-10 10:58N 51°53' E 004°25'0 0.0
2017-Sep-10 10:28N 51°53' E 004°25'0 0.0
2017-Sep-10 09:58N 51°53' E 004°25'0 0.0
2017-Sep-10 09:30N 51°53' E 004°25'0 0.0
2017-Sep-10 09:00N 51°53' E 004°25'0 0.0
2017-Sep-10 08:30N 51°53' E 004°25'0 0.0
2017-Sep-10 08:00N 51°53' E 004°25'0 0.0
2017-Sep-10 07:30N 51°53' E 004°25'0 0.0
2017-Sep-10 07:00N 51°53' E 004°25'1 1.5
2017-Sep-10 06:30N 51°53' E 004°24'5 9.0
2017-Sep-10 06:00N 51°54' E 004°17'713.9
2017-Sep-10 05:30N 51°58' E 004°08'815.8
2017-Sep-10 05:00N 51°60' E 003°56'611.5
2017-Sep-10 04:30N 51°59' E 003°46'10 9.5
2017-Sep-10 03:27N 51°56' E 003°31'510.3
2017-Sep-10 02:59N 51°55' E 003°24'510.0
2017-Sep-10 02:30N 51°53' E 003°16'3311.8
2017-Sep-09 23:41N 51°38' E 002°28'312.9
2017-Sep-09 23:30N 51°36' E 002°26'612.7
2017-Sep-09 23:00N 51°32' E 002°19'  
Track history (hours):
 
Tides and Currents Weather Stations Pressure Air Temp Water Temp Dewpoint Dewpoint Depression Visibility Wind Speed Wind Dir Waves Ship Positions

Ruth

Last reported at 2017-Sep-19 22:31 UTC. Time now 2017-Sep-19 22:40 UTC.
Position N 38°07' W 009°39'.

Length 134 m; draft 7.1 m.

Type: Ship (hazmat cat A). MMSI: 212613000.

Date/timePositionNaut miles runAvg speedWind from/ knotsBaromVisibWave heightAir tempDewpointWater temp
2017-Sep-19 22:31N 38°07' W 009°39'815.2
2017-Sep-19 22:01N 37°60' W 009°38'815.4
2017-Sep-19 21:31N 37°52' W 009°36'815.1
2017-Sep-19 21:00N 37°45' W 009°33'815.3
2017-Sep-19 20:31N 37°37' W 009°31'815.5
2017-Sep-19 20:00N 37°30' W 009°28'815.7
2017-Sep-19 19:31N 37°22' W 009°26'816.1
2017-Sep-19 18:59N 37°14' W 009°24'816.1
2017-Sep-19 18:30N 37°06' W 009°22'816.1
2017-Sep-19 18:01N 36°58' W 009°20'815.5
2017-Sep-19 17:28N 36°51' W 009°15'18316.2
2017-Sep-19 06:08N 35°58' W 005°38'214.0
2017-Sep-19 06:00N 35°58' W 005°35'713.9
2017-Sep-19 05:30N 35°59' W 005°27'713.9
2017-Sep-19 05:00N 36°01' W 005°18'224 8.9
2017-Sep-18 03:44N 37°31' W 001°02'314.3
2017-Sep-18 03:30N 37°28' W 001°04'1014.5
2017-Sep-18 02:50N 37°20' W 001°12'1314.6
2017-Sep-18 01:58N 37°11' W 001°22'19812.9
2017-Sep-17 10:38N 35°60' W 005°12'213.1
2017-Sep-17 10:30N 35°59' W 005°14'713.4
2017-Sep-17 10:00N 35°58' W 005°22'10 0.3
2017-Sep-15 22:20N 35°57' W 005°35'514.4
2017-Sep-15 22:01N 35°59' W 005°29'713.6
2017-Sep-15 21:30N 36°04' W 005°24'4 0.5
2017-Sep-15 14:12N 36°08' W 005°25'0 0.0
2017-Sep-15 14:00N 36°08' W 005°25'0 0.0
2017-Sep-15 13:23N 36°08' W 005°25'3 4.7
2017-Sep-15 12:44N 36°05' W 005°23'2 1.8
2017-Sep-15 11:36N 36°03' W 005°22'0 5.2
2017-Sep-15 11:30N 36°03' W 005°23'816.3
2017-Sep-15 11:00N 35°57' W 005°30'6117.7
2017-Sep-15 07:33N 36°01' W 006°45'117.0
2017-Sep-15 07:30N 36°01' W 006°46'3716.7
2017-Sep-15 05:18N 36°12' W 007°30'516.7
2017-Sep-15 05:00N 36°13' W 007°36'816.6
2017-Sep-15 04:31N 36°15' W 007°45'816.6
2017-Sep-15 04:00N 36°18' W 007°55'916.5
2017-Sep-15 03:27N 36°19' W 008°06'4716.6
2017-Sep-15 00:37N 36°31' W 009°03'622.6
2017-Sep-15 00:20N 36°26' W 009°07'1128.9
2017-Sep-14 23:57N 36°35' W 009°16'717.0
2017-Sep-14 23:30N 36°40' W 009°23'916.7
2017-Sep-14 22:59N 36°46' W 009°30'816.8
2017-Sep-14 22:30N 36°54' W 009°35'917.3
2017-Sep-14 22:01N 37°02' W 009°38'917.1
2017-Sep-14 21:31N 37°10' W 009°40'917.1
2017-Sep-14 21:01N 37°19' W 009°42'917.2
2017-Sep-14 20:31N 37°27' W 009°44'917.1
2017-Sep-14 20:01N 37°36' W 009°46'816.5
2017-Sep-14 19:31N 37°44' W 009°48'816.4
2017-Sep-14 19:01N 37°52' W 009°50'816.5
2017-Sep-14 18:31N 37°60' W 009°53'816.8
2017-Sep-14 18:01N 38°08' W 009°55'816.8
2017-Sep-14 17:31N 38°16' W 009°58'917.2
2017-Sep-14 17:01N 38°24' W 010°00'917.3
2017-Sep-14 16:31N 38°33' W 010°03'917.7
2017-Sep-14 16:00N 38°42' W 010°05'917.2
2017-Sep-14 15:31N 38°50' W 010°05'917.2
2017-Sep-14 15:01N 38°59' W 010°06'917.1
2017-Sep-14 14:30N 39°07' W 010°06'917.1
2017-Sep-14 14:01N 39°16' W 010°05'816.8
2017-Sep-14 13:30N 39°24' W 010°06'66614.3
2017-Sep-12 14:49N 49°36' W 003°56'516.0
2017-Sep-12 14:31N 49°39' W 003°50'815.9
2017-Sep-12 14:01N 49°43' W 003°41'815.6
2017-Sep-12 13:31N 49°48' W 003°30'815.1
2017-Sep-12 13:01N 49°51' W 003°20'714.8
2017-Sep-12 12:30N 49°55' W 003°10'714.4
2017-Sep-12 12:01N 49°58' W 003°00'713.9
2017-Sep-12 11:31N 50°01' W 002°50'713.8
2017-Sep-12 10:59N 50°02' W 002°39'3414.1
2017-Sep-12 08:35N 50°10' W 001°48'115.8
2017-Sep-12 08:30N 50°10' W 001°46'816.1
2017-Sep-12 08:00N 50°12' W 001°34'816.9
2017-Sep-12 07:30N 50°15' W 001°21'3517.9
2017-Sep-12 05:32N 50°24' W 000°28'017.5
2017-Sep-12 05:31N 50°24' W 000°27'917.0
2017-Sep-12 05:00N 50°26' W 000°14'816.3
2017-Sep-12 04:31N 50°28' W 000°02'816.0
2017-Sep-12 04:00N 50°30' E 000°10'815.5
2017-Sep-12 03:31N 50°32' E 000°22'714.9
2017-Sep-12 03:01N 50°34' E 000°33'714.3
2017-Sep-12 02:30N 50°38' E 000°43'714.5
2017-Sep-12 02:01N 50°42' E 000°53'714.4
2017-Sep-12 01:30N 50°46' E 001°02'1814.6
2017-Sep-12 00:17N 50°58' E 001°23'517.1
2017-Sep-12 00:01N 51°01' E 001°28'918.2
2017-Sep-11 23:31N 51°08' E 001°38'918.2
2017-Sep-11 23:00N 51°15' E 001°48'917.7
2017-Sep-11 22:30N 51°22' E 001°56'816.9
2017-Sep-11 22:00N 51°29' E 002°04'816.0
2017-Sep-11 21:30N 51°35' E 002°13'62122.4
2017-Sep-11 21:00N 52°03' E 003°43'0 0.0
2017-Sep-11 20:30N 52°03' E 003°43'0 0.0
2017-Sep-11 20:00N 52°03' E 003°43'0 0.0
2017-Sep-11 19:30N 52°03' E 003°43'0 0.0
2017-Sep-11 19:00N 52°03' E 003°43'0 0.0
2017-Sep-11 18:30N 52°03' E 003°43'0 0.0
2017-Sep-11 18:00N 52°03' E 003°43'0 0.0
2017-Sep-11 17:30N 52°03' E 003°43'0 0.0
2017-Sep-11 17:00N 52°03' E 003°43'4 7.3
2017-Sep-11 16:30N 52°03' E 003°49'5 9.7
2017-Sep-11 16:00N 52°02' E 003°56'713.5
2017-Sep-11 15:30N 51°59' E 004°06'612.5
2017-Sep-11 15:01N 51°55' E 004°14'510.7
2017-Sep-11 14:30N 51°54' E 004°23'2 4.2
2017-Sep-11 14:00N 51°54' E 004°26'0 0.0
2017-Sep-11 13:30N 51°54' E 004°26'0 0.0
2017-Sep-11 13:00N 51°54' E 004°26'0 0.0
2017-Sep-11 12:30N 51°54' E 004°26'0 0.0
2017-Sep-11 12:00N 51°54' E 004°26'0 0.0
2017-Sep-11 11:30N 51°54' E 004°26'0 0.0
2017-Sep-11 11:00N 51°54' E 004°26'0 0.0
2017-Sep-11 10:30N 51°54' E 004°26'0 0.0
2017-Sep-11 10:01N 51°54' E 004°26'0 0.0
2017-Sep-11 09:30N 51°54' E 004°26'0 0.1
2017-Sep-11 09:00N 51°54' E 004°26'1 2.4
2017-Sep-11 08:30N 51°54' E 004°24'1 2.2
2017-Sep-11 08:00N 51°53' E 004°25'0 0.0
2017-Sep-11 07:30N 51°53' E 004°25'0 0.0
2017-Sep-11 06:59N 51°53' E 004°25'0 0.0
2017-Sep-11 06:29N 51°53' E 004°25'0 0.0
2017-Sep-11 05:58N 51°53' E 004°25'0 0.0
2017-Sep-11 05:28N 51°53' E 004°25'0 0.0
2017-Sep-11 04:58N 51°53' E 004°25'0 0.8
2017-Sep-11 04:30N 51°53' E 004°25'0 0.0
2017-Sep-11 03:59N 51°53' E 004°25'0 0.0
2017-Sep-11 03:29N 51°53' E 004°25'0 0.0
2017-Sep-11 02:59N 51°53' E 004°25'0 0.0
2017-Sep-11 02:29N 51°53' E 004°25'0 0.0
2017-Sep-11 01:59N 51°53' E 004°25'0 0.0
2017-Sep-11 01:28N 51°53' E 004°25'0 0.0
2017-Sep-11 00:58N 51°53' E 004°25'0 0.0
2017-Sep-11 00:28N 51°53' E 004°25'0 0.0
2017-Sep-10 23:58N 51°53' E 004°25'0 0.0
2017-Sep-10 23:30N 51°53' E 004°25'0 0.0
2017-Sep-10 23:00N 51°53' E 004°25'0 0.0
2017-Sep-10 22:27N 51°53' E 004°25'0 0.0
2017-Sep-10 22:00N 51°53' E 004°25'0 0.0
2017-Sep-10 21:30N 51°53' E 004°25'0 0.0
2017-Sep-10 20:59N 51°53' E 004°25'0 0.0
2017-Sep-10 20:29N 51°53' E 004°25'0 0.0
2017-Sep-10 19:56N 51°53' E 004°25'0 0.0
2017-Sep-10 19:26N 51°53' E 004°25'0 0.0
2017-Sep-10 18:59N 51°53' E 004°25'0 0.0
2017-Sep-10 18:28N 51°53' E 004°25'0 0.0
2017-Sep-10 17:58N 51°53' E 004°25'0 0.0
2017-Sep-10 17:28N 51°53' E 004°25'0 0.0
2017-Sep-10 16:55N 51°53' E 004°25'0 0.0
2017-Sep-10 16:30N 51°53' E 004°25'0 0.0
2017-Sep-10 16:00N 51°53' E 004°25'0 0.0
2017-Sep-10 15:30N 51°53' E 004°25'0 0.0
2017-Sep-10 15:00N 51°53' E 004°25'0 0.0
2017-Sep-10 13:59N 51°53' E 004°25'0 0.0
2017-Sep-10 13:26N 51°53' E 004°25'0 0.0
2017-Sep-10 12:59N 51°53' E 004°25'0 0.0
2017-Sep-10 12:29N 51°53' E 004°25'0 0.0
2017-Sep-10 11:55N 51°53' E 004°25'0 0.0
2017-Sep-10 11:28N 51°53' E 004°25'0 0.0
2017-Sep-10 10:58N 51°53' E 004°25'0 0.0
2017-Sep-10 10:28N 51°53' E 004°25'0 0.0
2017-Sep-10 09:58N 51°53' E 004°25'0 0.0
2017-Sep-10 09:30N 51°53' E 004°25'0 0.0
2017-Sep-10 09:00N 51°53' E 004°25'0 0.0
2017-Sep-10 08:30N 51°53' E 004°25'0 0.0
2017-Sep-10 08:00N 51°53' E 004°25'0 0.0
2017-Sep-10 07:30N 51°53' E 004°25'0 0.0
2017-Sep-10 07:00N 51°53' E 004°25'1 1.5
2017-Sep-10 06:30N 51°53' E 004°24'5 9.0
2017-Sep-10 06:00N 51°54' E 004°17'713.9
2017-Sep-10 05:30N 51°58' E 004°08'815.8
2017-Sep-10 05:00N 51°60' E 003°56'611.5
2017-Sep-10 04:30N 51°59' E 003°46'10 9.5
2017-Sep-10 03:27N 51°56' E 003°31'510.3
2017-Sep-10 02:59N 51°55' E 003°24'510.0
2017-Sep-10 02:30N 51°53' E 003°16'3311.8
2017-Sep-09 23:41N 51°38' E 002°28'312.9
2017-Sep-09 23:30N 51°36' E 002°26'612.7
2017-Sep-09 23:00N 51°32' E 002°19'  

Dump ship's entire track history